Detalii statie SADELLI PRODCOM [00001D03]

Toti senzorii

Date Temperatura solului [C]Precipitatii [mm]Voltaj baterie [mV]Leaf Wetness [Min]HC Air temperature [C]HC Relative humidity [%]Punctul de roua [C]
medieminmaxsumaultimatimpmedieminmaxmediemediemin
2017-06-25 06:00:00 24.1 24 24.3 0 6738 21.45 21.28 21.67 0 0 0
2017-06-25 07:00:00 24.2 24 24.6 0 6834 22.5 21.75 23.46 0 0 0
2017-06-25 08:00:00 25.2 24.7 25.8 0 6982 24.67 23.69 26.31 0 0 0
2017-06-25 09:00:00 26.4 26 27.1 0 7186 26.58 25.59 27.4 0 0 0
2017-06-25 10:00:00 27.8 27.3 28.1 0 7196 26.72 26.17 28.04 0 0 0
2017-06-25 11:00:00 28.9 28.1 29.9 0 7186 27.65 26.3 28.78 0 0 0
2017-06-25 12:00:00 31.5 30.3 32.3 0 7186 29.64 28.9 30.77 0 0 0
2017-06-25 13:00:00 33.3 32.5 34.3 0 7186 30.84 29.42 32.11 2.33 0
2017-06-25 14:00:00 34.7 34.3 35 0 7176 30.47 29.16 32 31.81 0
2017-06-25 15:00:00 34 33.5 34.6 0 7186 29.42 28.92 30.18 0 0 0
2017-06-25 16:00:00 33.8 33.5 34.1 0 7186 30.81 30.09 31.61 9.55 0
2017-06-25 17:00:00 34.3 34.1 34.5 0 7186 30.74 30.23 31.43 20.28 0
2017-06-25 18:00:00 34.1 33.8 34.5 0 7070 30.17 29.37 30.52 36.41 13.3 10.9
2017-06-25 19:00:00 33.3 32.8 33.8 0 6854 29.17 28.66 29.77 38.26 13.1 9.3
2017-06-25 20:00:00 32 31.3 32.7 0 6776 27.65 26.83 28.57 3.19 0
2017-06-25 21:00:00 30.7 30.1 31.5 0 6756 24.98 22.76 26.76 0 0 0
2017-06-25 22:00:00 29.4 28.9 30 0 6748 21.57 20.75 22.58 0 0 0
2017-06-25 23:00:00 28.2 27.4 28.7 1.4 6738 20.2 19.94 20.63 0 0 0
2017-06-26 00:00:00 27 26.5 27.5 0 6728 20.63 20.06 21.18 0 0 0
2017-06-26 01:00:00 26 25.6 26.5 0.6 6698 20.11 19.22 22 41.65 0
2017-06-26 02:00:00 25.2 25 25.6 0 6698 18.96 18.68 19.2 100 18.9 18.6
2017-06-26 03:00:00 24.8 24.5 25.1 0 6698 18.85 18.78 18.97 100 18.8 18.7
2017-06-26 04:00:00 24.2 23.9 24.4 0 6688 19.15 18.93 19.51 100 19.1 18.9
2017-06-26 05:00:00 23.7 23.5 24 0 6688 19.16 18.65 19.5 100 19.1 18.6
2017-06-26 06:00:00 23.3 23.2 23.6 0 6738 18.59 18.28 19.05 100 18.5 18.2
2017-06-26 07:00:00 23.4 23.3 23.7 0 6854 19.55 18.97 20.15 100 19.5 18.9
2017-06-26 08:00:00 24.1 23.7 24.5 0 6972 20.57 19.87 21.13 81.6 16.4 7.5
2017-06-26 09:00:00 24.6 24.4 25.1 0 7158 22 20.92 23.24 14.41 0
2017-06-26 10:00:00 25.9 25.3 26.4 0 7186 23.46 22.92 24.57 0 0 0
2017-06-26 11:00:00 27 26.5 28 0 7196 24.41 23.38 25.67 0 0 0
2017-06-26 12:00:00 29.3 28.4 30.5 0 7186 26.5 25.35 27.77 0 0 0
2017-06-26 13:00:00 30.7 30.4 31.6 0 7196 26.92 25.67 28.51 0 0 0
2017-06-26 14:00:00 32.8 31.7 33.6 0 7186 28.01 27.25 28.91 0 0 0
2017-06-26 15:00:00 33.7 33.5 34.1 0 7176 27.94 27.06 28.97 0 0 0
2017-06-26 16:00:00 33.3 33.1 33.7 0 7196 27.27 26.61 27.75 0 0 0
2017-06-26 17:00:00 33.6 33.6 33.9 0 7196 27.23 26.86 27.59 0 0 0
2017-06-26 18:00:00 33.2 32.8 33.6 0 7020 27 25.98 28.17 0 0 0
2017-06-26 19:00:00 31.9 31.3 32.6 0 7176 26.38 24.82 27.6 0 0 0
2017-06-26 20:00:00 30.5 29.8 31.3 0 6826 24.31 23.92 24.58 0 0 0
2017-06-26 21:00:00 29.3 28.8 29.9 0 6766 23.1 22.27 24.23 0 0 0
2017-06-26 22:00:00 28 27.5 28.6 0 6756 21.43 20.7 22.23 0 0 0
2017-06-26 23:00:00 27 26.6 27.6 0 6718 19.83 19.15 20.72 38.24 6.6 0
2017-06-27 00:00:00 26.1 25.9 26.6 0 6698 19.35 19.01 19.9 86.2 16.7 13.7
2017-06-27 01:00:00 25.4 25.2 25.8 0 6708 19.7 19.53 19.84 59.42 11.2 9
2017-06-27 02:00:00 24.9 24.6 25.1 0 6698 19.43 19.06 19.62 66.25 12.7 9.5
2017-06-27 03:00:00 24.3 24.1 24.6 0 6678 19.14 19.09 19.18 77.43 14.8 12.8
2017-06-27 04:00:00 23.8 23.6 24.1 0 6678 19.04 18.84 19.14 73.35 13.9 10.4
2017-06-27 05:00:00 23.4 23.2 23.6 0 6678 18.76 18.55 18.97 68.87 12.7 9.9